Surface/Precipitation History
08/21/2014 13:38  to  8/22/2014 13:38
Change End Date:
Date/Time
(MDT)
Sf
Temp Chem Water Layer Surface Precipitation
Sf Sub Frz Factor Pct Depth IcePct Cond Salin Type Intens Accum Rate
08/22/2014 13:21 Wet 52.2F 64F 32F 5 0% 0.00 in 0% 0 mhos 4 Rain Slight 0.17 in 0.0 iph
08/22/2014 13:19 Wet 52.3F 64F 32F 5 0% 0.00 in 0% 0 mhos 5 None None 0.17 in 0.0 iph
08/22/2014 13:11 Wet 52.0F 64F 32F 5 0% 0.00 in 0% 0 mhos 4 Rain Slight 0.17 in 0.0 iph
08/22/2014 13:09 Wet 52.0F 64F 32F 5 0% 0.00 in 0% 0 mhos 4 Rain Slight 0.17 in 0.0 iph
08/22/2014 12:59 Wet 51.6F 64F 32F 5 0% 0.00 in 0% 0 mhos 4 None None 0.17 in 0.0 iph
08/22/2014 12:51 Wet 51.6F 64F 32F 5 0% 0.00 in 0% 0 mhos 3 Rain Slight 0.17 in 0.0 iph
08/22/2014 12:48 Wet 51.6F 64F 32F 5 0% 0.00 in 0% 0 mhos 5 Rain Slight 0.17 in 0.0 iph
08/22/2014 12:40 Wet 51.4F 64F 32F 5 0% 0.00 in 0% 0 mhos 5 Rain Slight 0.17 in 0.0 iph
08/22/2014 12:38 Wet 51.4F 64F 32F 5 0% 0.00 in 0% 0 mhos 4 Rain Slight 0.17 in 0.0 iph
08/22/2014 12:28 Wet 51.3F 64F 32F 5 0% 0.00 in 0% 0 mhos 5 Rain Slight 0.17 in 0.0 iph
08/22/2014 12:21 Wet 50.7F 64F 32F 5 0% 0.00 in 0% 0 mhos 6 Rain Slight 0.17 in 0.0 iph
08/22/2014 12:18 Wet 50.7F 64F 32F 5 0% 0.00 in 0% 0 mhos 6 Rain Slight 0.17 in 0.0 iph
08/22/2014 12:10 Wet 51.1F 64F 32F 5 0% 0.00 in 0% 0 mhos 7 None None 0.17 in 0.0 iph
08/22/2014 12:08 Wet 50.9F 64F 32F 5 0% 0.00 in 0% 0 mhos 7 Rain Slight 0.17 in 0.0 iph
08/22/2014 11:58 Wet 50.4F 64F 32F 5 0% 0.00 in 0% 0 mhos 7 Rain Slight 0.17 in 0.0 iph
Date/Time
(MDT)
Sf
Temp Chem Water Layer Surface Precipitation
Sf Sub Frz Factor Pct Depth IcePct Cond Salin Type Intens Accum Rate
08/22/2014 11:51 Wet 50.5F 64F 32F 5 0% 0.00 in 0% 0 mhos 6 Rain Slight 0.16 in 0.0 iph
08/22/2014 11:48 Wet 50.4F 64F 32F 5 0% 0.00 in 0% 0 mhos 6 Rain Slight 0.16 in 0.0 iph
08/22/2014 11:40 Wet 50.0F 64F 32F 5 0% 0.00 in 0% 0 mhos 7 Rain Slight 0.16 in 0.0 iph
08/22/2014 11:38 Wet 50.2F 64F 32F 5 0% 0.00 in 0% 0 mhos 5 None None 0.16 in 0.0 iph
08/22/2014 11:28 Wet 50.0F 64F 32F 5 0% 0.00 in 0% 0 mhos 6 None None 0.16 in 0.0 iph
08/22/2014 11:21 Wet 49.6F 64F 32F 5 0% 0.00 in 0% 0 mhos 5 Rain Slight 0.16 in 0.0 iph
08/22/2014 11:18 Wet 49.8F 64F 32F 5 0% 0.00 in 0% 0 mhos 4 Rain Slight 0.16 in 0.0 iph
08/22/2014 11:10 Wet 49.6F 64F 32F 5 0% 0.00 in 0% 0 mhos 7 Rain Slight 0.16 in 0.1 iph
08/22/2014 11:08 Wet 49.6F 64F 32F 5 0% 0.00 in 0% 0 mhos 7 Rain Slight 0.16 in 0.0 iph
08/22/2014 10:58 Wet 49.8F 65F 32F 5 0% 0.00 in 0% 0 mhos 7 Rain Slight 0.15 in 0.0 iph
08/22/2014 10:51 Wet 49.8F 65F 32F 5 0% 0.00 in 0% 0 mhos 6 Rain Slight 0.15 in 0.0 iph
08/22/2014 10:48 Wet 49.8F 65F 32F 5 0% 0.00 in 0% 0 mhos 7 Rain Slight 0.15 in 0.0 iph
08/22/2014 10:40 Wet 49.5F 65F 32F 5 0% 0.00 in 0% 0 mhos 7 Rain Slight 0.15 in 0.0 iph
08/22/2014 10:38 Wet 49.5F 65F 32F 5 0% 0.00 in 0% 0 mhos 7 Rain Slight 0.15 in 0.0 iph
08/22/2014 10:28 Wet 49.5F 65F 32F 5 0% 0.00 in 0% 0 mhos 4 Rain Slight 0.15 in 0.0 iph
Date/Time
(MDT)
Sf
Temp Chem Water Layer Surface Precipitation
Sf Sub Frz Factor Pct Depth IcePct Cond Salin Type Intens Accum Rate
08/22/2014 10:21 Wet 49.5F 65F 32F 5 0% 0.00 in 0% 0 mhos 2 Rain Slight 0.15 in 0.0 iph
08/22/2014 10:18 Wet 49.5F 65F 32F 5 0% 0.00 in 0% 0 mhos 2 Rain Slight 0.15 in 0.0 iph
08/22/2014 10:10 Trace Moisture 48.9F 65F - 5 - - - 0 mhos 1 None None 0.15 in 0.0 iph
08/22/2014 10:08 Trace Moisture 48.7F 65F - 5 - - - 0 mhos 1 None None 0.15 in 0.0 iph
08/22/2014 09:58 Dry 48.6F 65F - - - - - 0 mhos 2 None None 0.15 in 0.0 iph
08/22/2014 09:51 Dry 48.4F 65F - - - - - 0 mhos 2 None None 0.15 in 0.0 iph
08/22/2014 09:48 Dry 48.4F 65F - - - - - 0 mhos 2 None None 0.15 in 0.0 iph
08/22/2014 09:40 Trace Moisture 48.2F 65F - 5 - - - 0 mhos 2 None None 0.16 in 0.0 iph
08/22/2014 09:38 Trace Moisture 48.4F 65F - 5 - - - 0 mhos 3 None None 0.16 in 0.0 iph
08/22/2014 09:28 Trace Moisture 48.2F 65F - 5 - - - 0 mhos 3 None None 0.16 in 0.0 iph
08/22/2014 09:21 Trace Moisture 48.2F 65F - 5 - - - 0 mhos 3 None None 0.17 in 0.0 iph
08/22/2014 09:18 Trace Moisture 48.2F 65F - 5 - - - 0 mhos 3 None None 0.17 in 0.0 iph
08/22/2014 09:11 Trace Moisture 48.2F 65F - 5 - - - 0 mhos 3 None None 0.17 in 0.0 iph
08/22/2014 09:08 Trace Moisture 48.0F 65F - 5 - - - 0 mhos 3 None None 0.17 in 0.0 iph
08/22/2014 08:58 Dry 47.8F 65F - - - - - 0 mhos 3 None None 0.18 in 0.0 iph
Date/Time
(MDT)
Sf
Temp Chem Water Layer Surface Precipitation
Sf Sub Frz Factor Pct Depth IcePct Cond Salin Type Intens Accum Rate
08/22/2014 08:51 Dry 47.8F 65F - - - - - 0 mhos 4 None None 0.19 in 0.0 iph
08/22/2014 08:48 Dry 47.8F 65F - - - - - 0 mhos 4 None None 0.19 in 0.0 iph
08/22/2014 08:40 Dry 47.7F 65F - - - - - 0 mhos 5 None None 0.20 in 0.0 iph
08/22/2014 08:38 Dry 47.7F 65F - - - - - 0 mhos 5 None None 0.20 in 0.0 iph
08/22/2014 08:28 Dry 47.8F 65F - - - - - 0 mhos 5 None None 0.24 in 0.0 iph
08/22/2014 08:21 Dry 47.7F 65F - - - - - 0 mhos 5 None None 0.26 in 0.0 iph
08/22/2014 08:18 Dry 47.7F 65F - - - - - 0 mhos 6 None None 0.26 in 0.0 iph
08/22/2014 08:10 Dry 47.5F 65F - - - - - 0 mhos 6 None None 0.26 in 0.0 iph
08/22/2014 08:08 Dry 47.5F 65F - - - - - 0 mhos 5 None None 0.26 in 0.0 iph
08/22/2014 07:58 Dry 47.1F 65F - - - - - 0 mhos 7 None None 0.26 in 0.0 iph
08/22/2014 07:51 Dry 47.3F 65F - - - - - 0 mhos 7 None None 0.26 in 0.0 iph
08/22/2014 07:48 Dry 47.3F 65F - - - - - 0 mhos 7 None None 0.26 in 0.0 iph
08/22/2014 07:40 Dry 47.5F 65F - - - - - 0 mhos 7 None None 0.27 in 0.0 iph
08/22/2014 07:38 Dry 47.5F 65F - - - - - 0 mhos 7 None None 0.27 in 0.0 iph
08/22/2014 07:28 Wet 47.3F 65F 32F 5 0% 0.00 in 0% 0 mhos 7 None None 0.28 in 0.0 iph
Date/Time
(MDT)
Sf
Temp Chem Water Layer Surface Precipitation
Sf Sub Frz Factor Pct Depth IcePct Cond Salin Type Intens Accum Rate
08/22/2014 07:21 Wet 47.5F 65F 32F 5 0% 0.00 in 0% 0 mhos 8 None None 0.29 in 0.0 iph
08/22/2014 07:18 Wet 47.1F 65F 32F 5 0% 0.00 in 0% 0 mhos 8 None None 0.29 in 0.0 iph
08/22/2014 07:10 Wet 47.1F 65F 32F 5 0% 0.00 in 0% 0 mhos 8 None None 0.30 in 0.0 iph
08/22/2014 07:08 Wet 46.9F 65F 32F 5 0% 0.00 in 0% 0 mhos 8 None None 0.30 in 0.0 iph
08/22/2014 06:58 Wet 47.1F 65F 32F 5 0% 0.00 in 0% 0 mhos 8 None None 0.31 in 0.0 iph
08/22/2014 06:51 Wet 47.1F 65F 32F 5 0% 0.00 in 0% 0 mhos 8 None None 0.33 in 0.0 iph
08/22/2014 06:48 Wet 47.1F 66F 32F 5 0% 0.00 in 0% 0 mhos 8 None None 0.33 in 0.0 iph
08/22/2014 06:40 Wet 47.1F 65F 32F 5 0% 0.00 in 0% 0 mhos 8 None None 0.33 in 0.0 iph
08/22/2014 06:38 Wet 47.1F 66F 32F 5 0% 0.00 in 0% 0 mhos 8 None None 0.33 in 0.0 iph
08/22/2014 06:28 Wet 47.1F 66F 32F 5 0% 0.00 in 0% 0 mhos 8 None None 0.34 in 0.0 iph
08/22/2014 06:21 Wet 47.1F 66F 32F 5 0% 0.00 in 0% 0 mhos 8 None None 0.34 in 0.0 iph
08/22/2014 06:18 Wet 47.3F 66F 32F 5 0% 0.00 in 0% 0 mhos 8 None None 0.35 in 0.0 iph
08/22/2014 06:11 Wet 47.5F 66F 32F 5 0% 0.00 in 0% 0 mhos 8 None None 0.35 in 0.0 iph
08/22/2014 06:08 Wet 47.5F 66F 32F 5 0% 0.00 in 0% 0 mhos 8 None None 0.36 in 0.0 iph
08/22/2014 05:57 Wet 47.5F 66F 32F 5 0% 0.00 in 0% 0 mhos 8 None None 0.37 in 0.0 iph
Date/Time
(MDT)
Sf
Temp Chem Water Layer Surface Precipitation
Sf Sub Frz Factor Pct Depth IcePct Cond Salin Type Intens Accum Rate
08/22/2014 05:51 Wet 47.7F 66F 32F 5 0% 0.00 in 0% 0 mhos 8 None None 0.37 in 0.0 iph
08/22/2014 05:47 Wet 47.7F 66F 32F 5 0% 0.00 in 0% 0 mhos 7 None None 0.37 in 0.0 iph
08/22/2014 05:40 Wet 47.7F 66F 32F 5 0% 0.00 in 0% 0 mhos 8 None None 0.37 in 0.0 iph
08/22/2014 05:37 Wet 47.7F 66F 32F 5 0% 0.00 in 0% 0 mhos 8 None None 0.38 in 0.0 iph
08/22/2014 05:27 Wet 47.7F 66F 32F 5 0% 0.00 in 0% 0 mhos 7 None None 0.38 in 0.0 iph
08/22/2014 05:21 Wet 47.7F 66F 32F 5 0% 0.00 in 0% 0 mhos 9 None None 0.38 in 0.0 iph
08/22/2014 05:17 Wet 47.7F 66F 32F 5 0% 0.00 in 0% 0 mhos 8 None None 0.38 in 0.0 iph
08/22/2014 05:10 Wet 47.7F 66F 32F 5 0% 0.00 in 0% 0 mhos 8 None None 0.38 in 0.0 iph
08/22/2014 05:07 Wet 47.7F 66F 32F 5 0% 0.00 in 0% 0 mhos 8 None None 0.39 in 0.0 iph
08/22/2014 04:57 Wet 47.8F 66F 32F 5 0% 0.00 in 0% 0 mhos 7 None None 0.40 in 0.0 iph
08/22/2014 04:51 Wet 47.8F 66F 32F 5 0% 0.00 in 0% 0 mhos 7 None None 0.40 in 0.0 iph
08/22/2014 04:47 Wet 47.8F 66F 32F 5 0% 0.00 in 0% 0 mhos 6 None None 0.40 in 0.0 iph
08/22/2014 04:40 Wet 48.0F 66F 32F 5 0% 0.00 in 0% 0 mhos 6 None None 0.40 in 0.0 iph
08/22/2014 04:37 Wet 48.2F 66F 32F 5 0% 0.00 in 0% 0 mhos 6 None None 0.41 in 0.0 iph
08/22/2014 04:27 Wet 48.2F 66F 32F 5 0% 0.00 in 0% 0 mhos 6 None None 0.41 in 0.0 iph
Date/Time
(MDT)
Sf
Temp Chem Water Layer Surface Precipitation
Sf Sub Frz Factor Pct Depth IcePct Cond Salin Type Intens Accum Rate
08/22/2014 04:21 Wet 48.2F 66F 32F 5 0% 0.00 in 0% 0 mhos 6 None None 0.41 in 0.0 iph
08/22/2014 04:17 Wet 48.2F 66F 32F 5 0% 0.00 in 0% 0 mhos 6 None None 0.41 in 0.0 iph
08/22/2014 04:10 Wet 48.2F 66F 32F 5 0% 0.00 in 0% 0 mhos 6 None None 0.41 in 0.0 iph
08/22/2014 04:07 Wet 48.2F 66F 32F 5 0% 0.00 in 0% 0 mhos 6 None None 0.41 in 0.0 iph
08/22/2014 03:57 Wet 48.2F 66F 32F 5 0% 0.00 in 0% 0 mhos 6 None None 0.41 in 0.0 iph
08/22/2014 03:51 Wet 48.2F 66F 32F 5 0% 0.00 in 0% 0 mhos 6 None None 0.41 in 0.0 iph
08/22/2014 03:47 Wet 48.2F 66F 32F 5 0% 0.00 in 0% 0 mhos 6 None None 0.41 in 0.0 iph
08/22/2014 03:40 Wet 48.2F 66F 32F 5 0% 0.00 in 0% 0 mhos 6 None None 0.41 in 0.0 iph
08/22/2014 03:37 Wet 48.2F 66F 32F 5 0% 0.00 in 0% 0 mhos 6 None None 0.41 in 0.0 iph
08/22/2014 03:27 Wet 48.2F 66F 32F 5 0% 0.00 in 0% 0 mhos 6 None None 0.41 in 0.0 iph
08/22/2014 03:21 Wet 48.2F 66F 32F 5 0% 0.00 in 0% 0 mhos 6 None None 0.41 in 0.0 iph
08/22/2014 03:17 Wet 48.2F 66F 32F 5 0% 0.00 in 0% 0 mhos 6 None None 0.41 in 0.0 iph
08/22/2014 03:10 Wet 48.2F 66F 32F 5 0% 0.00 in 0% 0 mhos 6 None None 0.41 in 0.0 iph
08/22/2014 03:07 Wet 48.2F 66F 32F 5 0% 0.00 in 0% 0 mhos 6 None None 0.41 in 0.0 iph
08/22/2014 02:57 Wet 48.2F 66F 32F 5 0% 0.00 in 0% 0 mhos 6 None None 0.41 in 0.0 iph
Date/Time
(MDT)
Sf
Temp Chem Water Layer Surface Precipitation
Sf Sub Frz Factor Pct Depth IcePct Cond Salin Type Intens Accum Rate
08/22/2014 02:51 Wet 48.2F 67F 32F 5 0% 0.00 in 0% 0 mhos 6 None None 0.41 in 0.0 iph
08/22/2014 02:47 Wet 48.4F 66F 32F 5 0% 0.00 in 0% 0 mhos 6 None None 0.41 in 0.0 iph
08/22/2014 02:40 Wet 48.2F 67F 32F 5 0% 0.00 in 0% 0 mhos 6 None None 0.41 in 0.0 iph
08/22/2014 02:37 Wet 48.4F 67F 32F 5 0% 0.00 in 0% 0 mhos 6 None None 0.41 in 0.0 iph
08/22/2014 02:27 Wet 48.2F 67F 32F 5 0% 0.00 in 0% 0 mhos 6 None None 0.41 in 0.0 iph
08/22/2014 02:21 Wet 48.2F 67F 32F 5 0% 0.00 in 0% 0 mhos 6 None None 0.41 in 0.0 iph
08/22/2014 02:17 Wet 48.6F 67F 32F 5 0% 0.00 in 0% 0 mhos 6 None None 0.42 in 0.0 iph
08/22/2014 02:10 Wet 48.4F 67F 32F 5 0% 0.00 in 0% 0 mhos 6 None None 0.42 in 0.0 iph
08/22/2014 02:07 Wet 48.6F 67F 32F 5 0% 0.00 in 0% 0 mhos 6 None None 0.42 in 0.0 iph
08/22/2014 01:57 Wet 48.6F 67F 32F 5 0% 0.00 in 0% 0 mhos 6 None None 0.42 in 0.0 iph
08/22/2014 01:51 Wet 48.6F 67F 32F 5 0% 0.00 in 0% 0 mhos 6 None None 0.42 in 0.0 iph
08/22/2014 01:47 Wet 48.6F 67F 32F 5 0% 0.00 in 0% 0 mhos 6 None None 0.42 in 0.0 iph
08/22/2014 01:40 Wet 48.9F 67F 32F 5 0% 0.00 in 0% 0 mhos 6 None None 0.42 in 0.0 iph
08/22/2014 01:37 Wet 48.7F 67F 32F 5 0% 0.00 in 0% 0 mhos 6 None None 0.42 in 0.0 iph
08/22/2014 01:27 Wet 48.7F 67F 32F 5 0% 0.00 in 0% 0 mhos 6 None None 0.42 in 0.0 iph
Date/Time
(MDT)
Sf
Temp Chem Water Layer Surface Precipitation
Sf Sub Frz Factor Pct Depth IcePct Cond Salin Type Intens Accum Rate
08/22/2014 01:21 Wet 48.7F 67F 32F 5 0% 0.00 in 0% 0 mhos 6 None None 0.42 in 0.0 iph
08/22/2014 01:17 Wet 48.7F 67F 32F 5 0% 0.00 in 0% 0 mhos 6 None None 0.43 in 0.0 iph
08/22/2014 01:10 Wet 48.7F 67F 32F 5 0% 0.00 in 0% 0 mhos 6 None None 0.43 in 0.0 iph
08/22/2014 01:07 Wet 48.7F 67F 32F 5 0% 0.00 in 0% 0 mhos 6 None None 0.43 in 0.0 iph
08/22/2014 00:56 Wet 48.9F 67F 32F 5 0% 0.00 in 0% 0 mhos 6 None None 0.43 in 0.0 iph
08/22/2014 00:51 Wet 48.9F 67F 32F 5 0% 0.00 in 0% 0 mhos 6 None None 0.43 in 0.0 iph
08/22/2014 00:46 Wet 48.9F 67F 32F 5 0% 0.00 in 0% 0 mhos 6 None None 0.43 in 0.0 iph
08/22/2014 00:37 Wet 48.9F 67F 32F 5 0% 0.00 in 0% 0 mhos 5 None None 0.43 in 0.0 iph
08/22/2014 00:36 Wet 48.9F 67F 32F 5 0% 0.00 in 0% 0 mhos 5 None None 0.43 in 0.0 iph
08/22/2014 00:26 Wet 48.9F 67F 32F 5 0% 0.00 in 0% 0 mhos 5 None None 0.43 in 0.0 iph
08/22/2014 00:21 Wet 48.9F 67F 32F 5 0% 0.00 in 0% 0 mhos 5 None None 0.43 in 0.0 iph
08/22/2014 00:16 Wet 48.9F 67F 32F 5 0% 0.00 in 0% 0 mhos 5 None None 0.43 in 0.0 iph
08/22/2014 00:14 Wet 48.9F 67F 32F 5 0% 0.00 in 0% 0 mhos 5 None None 0.43 in 0.0 iph
08/22/2014 00:06 Wet 48.9F 67F 32F 5 0% 0.00 in 0% 0 mhos 5 None None 0.43 in 0.0 iph
08/21/2014 23:57 Wet 48.9F 67F 32F 5 0% 0.00 in 0% 0 mhos 5 None None 0.43 in 0.0 iph
Date/Time
(MDT)
Sf
Temp Chem Water Layer Surface Precipitation
Sf Sub Frz Factor Pct Depth IcePct Cond Salin Type Intens Accum Rate
08/21/2014 23:56 Wet 48.9F 67F 32F 5 0% 0.00 in 0% 0 mhos 5 None None 0.43 in 0.0 iph
08/21/2014 23:46 Wet 49.1F 67F 32F 5 0% 0.00 in 0% 0 mhos 5 None None 0.43 in 0.0 iph
08/21/2014 23:41 Wet 49.3F 67F 32F 5 0% 0.00 in 0% 0 mhos 4 None None 0.43 in 0.0 iph
08/21/2014 23:36 Wet 49.3F 67F 32F 5 0% 0.00 in 0% 0 mhos 4 None None 0.43 in 0.0 iph
08/21/2014 23:26 Wet 49.5F 67F 32F 5 0% 0.00 in 0% 0 mhos 3 None None 0.43 in 0.0 iph
08/21/2014 23:16 Wet 49.5F 67F 32F 5 0% 0.00 in 0% 0 mhos 3 None None 0.43 in 0.0 iph
08/21/2014 23:11 Wet 49.5F 67F 32F 5 0% 0.00 in 0% 0 mhos 4 Rain Slight 0.43 in 0.0 iph
08/21/2014 23:06 Wet 49.5F 67F 32F 5 0% 0.00 in 0% 0 mhos 4 Rain Slight 0.43 in 0.0 iph
08/21/2014 22:56 Wet 49.5F 67F 32F 5 0% 0.00 in 0% 0 mhos 3 Rain Slight 0.43 in 0.0 iph
08/21/2014 22:51 Wet 49.6F 67F 32F 5 0% 0.00 in 0% 0 mhos 3 Rain Slight 0.42 in 0.0 iph
08/21/2014 22:46 Wet 49.6F 67F 32F 5 0% 0.00 in 0% 0 mhos 3 Rain Slight 0.42 in 0.0 iph
08/21/2014 22:40 Wet 49.6F 67F 32F 5 0% 0.00 in 0% 0 mhos 4 Rain Slight 0.42 in 0.0 iph
08/21/2014 22:36 Wet 49.8F 67F 32F 5 0% 0.00 in 0% 0 mhos 3 Rain Slight 0.42 in 0.0 iph
08/21/2014 22:26 Wet 49.6F 67F 32F 5 0% 0.00 in 0% 0 mhos 3 Rain Slight 0.41 in 0.0 iph
08/21/2014 22:21 Wet 49.6F 67F 32F 5 0% 0.00 in 0% 0 mhos 3 Rain Slight 0.41 in 0.0 iph
Date/Time
(MDT)
Sf
Temp Chem Water Layer Surface Precipitation
Sf Sub Frz Factor Pct Depth IcePct Cond Salin Type Intens Accum Rate
08/21/2014 22:16 Wet 49.6F 68F 32F 5 0% 0.00 in 0% 0 mhos 3 Rain Slight 0.41 in 0.1 iph
08/21/2014 22:10 Wet 49.5F 68F 32F 5 0% 0.00 in 0% 0 mhos 3 Rain Moderate 0.41 in 0.0 iph
08/21/2014 22:06 Wet 49.6F 68F 32F 5 0% 0.00 in 0% 0 mhos 3 Rain Slight 0.41 in 0.0 iph
08/21/2014 21:56 Wet 49.8F 68F 32F 5 0% 0.00 in 0% 0 mhos 3 Rain Slight 0.41 in 0.0 iph
08/21/2014 21:51 Wet 49.8F 68F 32F 5 0% 0.00 in 0% 0 mhos 3 Rain Moderate 0.40 in 0.1 iph
08/21/2014 21:46 Wet 49.8F 68F 32F 5 0% 0.00 in 0% 0 mhos 3 Rain Slight 0.40 in 0.0 iph
08/21/2014 21:40 Wet 49.8F 68F 32F 5 0% 0.00 in 0% 0 mhos 2 Rain Slight 0.39 in 0.0 iph
08/21/2014 21:36 Wet 49.6F 68F 32F 5 0% 0.00 in 0% 0 mhos 4 Rain Slight 0.39 in 0.0 iph
08/21/2014 21:26 Wet 50.0F 68F 32F 5 0% 0.00 in 0% 0 mhos 4 Rain Slight 0.39 in 0.0 iph
08/21/2014 21:21 Wet 49.8F 68F 32F 5 0% 0.00 in 0% 0 mhos 4 Rain Slight 0.39 in 0.0 iph
08/21/2014 21:16 Wet 49.8F 68F 32F 5 0% 0.00 in 0% 0 mhos 4 None None 0.39 in 0.0 iph
08/21/2014 21:10 Wet 50.0F 68F 32F 5 0% 0.00 in 0% 0 mhos 3 None None 0.39 in 0.0 iph
08/21/2014 21:06 Wet 50.2F 68F 32F 5 0% 0.00 in 0% 0 mhos 3 None None 0.39 in 0.0 iph
08/21/2014 20:56 Wet 50.4F 68F 32F 5 0% 0.00 in 0% 0 mhos 3 None None 0.39 in 0.0 iph
08/21/2014 20:51 Wet 50.5F 68F 32F 5 0% 0.00 in 0% 0 mhos 3 Rain Slight 0.38 in 0.0 iph
Date/Time
(MDT)
Sf
Temp Chem Water Layer Surface Precipitation
Sf Sub Frz Factor Pct Depth IcePct Cond Salin Type Intens Accum Rate
08/21/2014 20:45 Wet 50.7F 68F 32F 5 0% 0.00 in 0% 0 mhos 3 Rain Slight 0.38 in 0.0 iph
08/21/2014 20:39 Wet 50.7F 68F 32F 5 0% 0.00 in 0% 0 mhos 3 Rain Slight 0.38 in 0.0 iph
08/21/2014 20:35 Wet 50.7F 68F 32F 5 0% 0.00 in 0% 0 mhos 2 Rain Slight 0.38 in 0.0 iph
08/21/2014 20:25 Wet 50.9F 68F 32F 5 0% 0.00 in 0% 0 mhos 2 Rain Slight 0.38 in 0.0 iph
08/21/2014 20:21 Wet 50.7F 68F 32F 5 0% 0.00 in 0% 0 mhos 2 Rain Slight 0.37 in 0.0 iph
08/21/2014 20:15 Wet 50.9F 68F 32F 5 0% 0.00 in 0% 0 mhos 2 Rain Slight 0.37 in 0.0 iph
08/21/2014 20:10 Wet 51.1F 68F 32F 5 0% 0.00 in 0% 0 mhos 2 Rain Moderate 0.37 in 0.1 iph
08/21/2014 20:05 Wet 51.1F 68F 32F 5 0% 0.00 in 0% 0 mhos 3 Rain Slight 0.37 in 0.1 iph
08/21/2014 19:55 Wet 51.3F 68F 32F 5 0% 0.00 in 0% 0 mhos 3 Rain Moderate 0.34 in 0.1 iph
08/21/2014 19:51 Wet 51.3F 68F 32F 5 0% 0.00 in 0% 0 mhos 3 Rain Slight 0.34 in 0.0 iph
08/21/2014 19:45 Wet 51.4F 68F 32F 5 0% 0.00 in 0% 0 mhos 3 Rain Moderate 0.33 in 0.1 iph
08/21/2014 19:40 Wet 51.6F 68F 32F 5 0% 0.00 in 0% 0 mhos 2 Rain Slight 0.33 in 0.1 iph
08/21/2014 19:35 Wet 51.8F 68F 32F 5 0% 0.00 in 0% 0 mhos 3 Rain Slight 0.33 in 0.0 iph
08/21/2014 19:25 Wet 52.2F 68F 32F 5 0% 0.00 in 0% 0 mhos 4 Rain Moderate - 0.1 iph
08/21/2014 19:21 Wet 52.2F 68F 32F 5 0% 0.00 in 0% 0 mhos 4 Rain Slight - 0.0 iph
Date/Time
(MDT)
Sf
Temp Chem Water Layer Surface Precipitation
Sf Sub Frz Factor Pct Depth IcePct Cond Salin Type Intens Accum Rate
08/21/2014 19:15 Wet 52.3F 68F 32F 5 0% 0.00 in 0% 0 mhos 5 Rain Slight - 0.0 iph
08/21/2014 19:10 Wet 52.3F 68F 32F 5 0% 0.00 in 0% 0 mhos 5 Rain Moderate - 0.0 iph
08/21/2014 19:05 Wet 52.5F 68F 32F 5 0% 0.00 in 0% 0 mhos 5 Rain Slight - 0.0 iph
08/21/2014 18:55 Wet 52.7F 68F 32F 5 0% 0.00 in 0% 0 mhos 5 Rain Slight - 0.0 iph
08/21/2014 18:51 Wet 52.7F 68F 32F 5 0% 0.00 in 0% 0 mhos 5 Rain Moderate - 0.0 iph
08/21/2014 18:45 Wet 52.9F 68F 32F 5 0% 0.00 in 0% 0 mhos 5 Rain Slight - 0.0 iph
08/21/2014 18:40 Wet 52.9F 68F 32F 5 0% 0.00 in 0% 0 mhos 3 Rain Slight - 0.0 iph
08/21/2014 18:35 Wet 53.1F 68F 32F 5 0% 0.00 in 0% 0 mhos 5 Rain Moderate - 0.1 iph
08/21/2014 18:25 Wet 53.2F 68F 32F 5 0% 0.00 in 0% 0 mhos 6 Rain Slight - 0.0 iph
08/21/2014 18:21 Wet 53.2F 68F 32F 5 0% 0.00 in 0% 0 mhos 8 Rain Moderate - 0.1 iph
08/21/2014 18:15 Wet 53.8F 68F 32F 5 0% 0.00 in 0% 0 mhos 7 Rain Slight - 0.0 iph
08/21/2014 18:10 Wet 54.0F 68F 32F 5 0% 0.00 in 0% 0 mhos 7 Rain Slight - 0.0 iph
08/21/2014 18:05 Wet 54.3F 68F 32F 5 0% 0.00 in 0% 0 mhos 7 Rain Slight - 0.0 iph
08/21/2014 17:55 Wet 54.7F 68F 32F 5 0% 0.00 in 0% 0 mhos 6 Rain Slight - 0.0 iph
08/21/2014 17:51 Wet 54.9F 68F 32F 5 0% 0.00 in 0% 0 mhos 7 Rain Slight - 0.0 iph
Date/Time
(MDT)
Sf
Temp Chem Water Layer Surface Precipitation
Sf Sub Frz Factor Pct Depth IcePct Cond Salin Type Intens Accum Rate
08/21/2014 17:45 Wet 55.4F 68F 32F 5 0% 0.00 in 0% 0 mhos 7 Rain Slight - 0.0 iph
08/21/2014 17:38 Wet 55.0F 68F 32F 5 0% 0.00 in 0% 0 mhos 5 Rain Slight - 0.0 iph
08/21/2014 17:35 Wet 55.2F 68F 32F 5 0% 0.00 in 0% 0 mhos 3 Rain Slight - 0.0 iph
08/21/2014 17:25 Trace Moisture 55.8F 68F - 5 - - - 0 mhos 0 None None - 0.0 iph
08/21/2014 17:21 Dry 55.8F 68F - - - - - 0 mhos 0 None None - 0.0 iph
08/21/2014 17:15 Dry 56.3F 68F - - - - - 0 mhos 0 None None - 0.0 iph
08/21/2014 17:10 Trace Moisture 56.1F 68F - 5 - - - 0 mhos 0 None None - 0.0 iph
08/21/2014 17:05 Dry 56.5F 68F - - - - - 0 mhos 0 None None - 0.0 iph
08/21/2014 16:55 Dry 57.9F 68F - - - - - 0 mhos 0 None None - 0.0 iph
08/21/2014 16:51 Dry 58.3F 68F - - - - - 0 mhos 0 None None - 0.0 iph
08/21/2014 16:44 Dry 58.6F 68F - - - - - 0 mhos 0 None None - 0.0 iph
08/21/2014 16:38 Dry 58.8F 69F - - - - - 0 mhos 0 None None - 0.0 iph
08/21/2014 16:34 Dry 58.5F 68F - - - - - 0 mhos 0 None None - 0.0 iph
08/21/2014 16:24 Dry 58.8F 69F - - - - - 0 mhos 0 None None - 0.0 iph
08/21/2014 16:21 Dry 59.0F 69F - - - - - 0 mhos 0 None None - 0.0 iph
Date/Time
(MDT)
Sf
Temp Chem Water Layer Surface Precipitation
Sf Sub Frz Factor Pct Depth IcePct Cond Salin Type Intens Accum Rate
08/21/2014 16:14 Dry 59.4F 69F - - - - - 0 mhos 0 None None - 0.0 iph
08/21/2014 16:10 Dry 59.0F 69F - - - - - 0 mhos 0 None None - 0.0 iph
08/21/2014 16:04 Dry 58.8F 69F - - - - - 0 mhos 0 None None - 0.0 iph
08/21/2014 15:54 Dry 57.9F 69F - - - - - 0 mhos 0 None None - 0.0 iph
08/21/2014 15:51 Dry 57.7F 69F - - - - - 0 mhos 0 None None - 0.0 iph
08/21/2014 15:44 Dry 57.2F 69F - - - - - 0 mhos 0 None None - 0.0 iph
08/21/2014 15:40 Dry 57.0F 69F - - - - - 0 mhos 0 None None - 0.0 iph
08/21/2014 15:34 Dry 56.3F 69F - - - - - 0 mhos 1 None None - 0.0 iph
08/21/2014 15:24 Dry 56.3F 69F - - - - - 0 mhos 1 None None - 0.0 iph
08/21/2014 15:21 Dry 56.1F 69F - - - - - 0 mhos 1 None None - 0.0 iph
08/21/2014 15:14 Dry 56.5F 69F - - - - - 0 mhos 1 None None - 0.0 iph
08/21/2014 15:10 Dry 56.7F 69F - - - - - 0 mhos 1 None None - 0.0 iph
08/21/2014 15:04 Dry 57.2F 69F - - - - - 0 mhos 1 None None - 0.0 iph
08/21/2014 14:54 Dry 57.2F 69F - - - - - 0 mhos 2 None None - 0.0 iph
08/21/2014 14:51 Dry 57.4F 69F - - - - - 0 mhos 2 None None - 0.0 iph
Date/Time
(MDT)
Sf
Temp Chem Water Layer Surface Precipitation
Sf Sub Frz Factor Pct Depth IcePct Cond Salin Type Intens Accum Rate
08/21/2014 14:44 Dry 57.4F 69F - - - - - 0 mhos 3 None None - 0.0 iph
08/21/2014 14:40 Dry 57.2F 69F - - - - - 0 mhos 3 None None - 0.0 iph
08/21/2014 14:34 Dry 57.4F 69F - - - - - 0 mhos 3 None None - 0.0 iph
08/21/2014 14:24 Dry 57.0F 69F - - - - - 0 mhos 4 None None - 0.0 iph
08/21/2014 14:22 Dry 57.0F 69F - - - - - 0 mhos 4 None None - 0.0 iph
08/21/2014 14:14 Dry 56.8F 69F - - - - - 0 mhos 5 None None - 0.0 iph
08/21/2014 14:08 Dry 55.8F 69F - - - - - 0 mhos 5 None None - 0.0 iph
08/21/2014 14:04 Dry 55.2F 69F - - - - - 0 mhos 5 None None - 0.0 iph
08/21/2014 13:54 Wet 54.9F 69F 32F 5 0% 0.00 in 0% 0 mhos 6 None None - 0.0 iph
08/21/2014 13:51 Wet 54.9F 69F 32F 5 0% 0.00 in 0% 0 mhos 6 None None - 0.0 iph
08/21/2014 13:43 Wet 55.0F 69F 32F 5 0% 0.00 in 0% 0 mhos 8 None None - 0.0 iph
08/21/2014 13:40 Wet 55.2F 69F 32F 5 0% 0.00 in 0% 0 mhos 8 None None - 0.0 iph
Change End Date:
Copyright © 1998-2005 Surface Systems, Inc.
All Rights Reserved
Send comments about the data to:
SCAN Web ® is a registered trademark of Surface Systems, Inc.
SCAN Web Version 5.6